createdAt,value
2022-12-15T00:01:44.125Z,5.80
2022-12-15T00:04:35.728Z,5.50
2022-12-15T00:07:27.549Z,5.70
2022-12-15T00:10:18.895Z,6.13
2022-12-15T00:13:10.384Z,5.80
2022-12-15T00:16:01.941Z,7.20
2022-12-15T00:18:53.536Z,6.40
2022-12-15T00:21:45.163Z,5.90
2022-12-15T00:24:36.846Z,6.00
2022-12-15T00:27:28.326Z,6.63
2022-12-15T00:30:19.820Z,5.40
2022-12-15T00:33:11.308Z,6.07
2022-12-15T00:36:02.746Z,6.00
2022-12-15T00:38:44.572Z,5.50
2022-12-15T00:41:18.263Z,5.67
2022-12-15T00:43:51.197Z,6.03
2022-12-15T00:46:42.668Z,6.07
2022-12-15T00:49:34.241Z,5.23
2022-12-15T00:52:25.924Z,5.63
2022-12-15T00:55:17.345Z,4.63
2022-12-15T00:58:08.855Z,5.00
2022-12-15T01:01:00.329Z,4.07
2022-12-15T01:03:52.002Z,5.07
2022-12-15T01:06:43.928Z,4.27
2022-12-15T01:09:35.519Z,4.67
2022-12-15T01:12:27.005Z,3.37
2022-12-15T01:15:18.449Z,5.07
2022-12-15T01:18:10.033Z,6.07
2022-12-15T01:20:43.031Z,4.57
2022-12-15T01:23:16.006Z,4.63
2022-12-15T01:25:51.088Z,4.83
2022-12-15T01:28:24.473Z,4.77
2022-12-15T01:30:57.553Z,4.53
2022-12-15T01:33:30.925Z,5.00
2022-12-15T01:36:04.161Z,4.37
2022-12-15T01:38:37.312Z,5.10
2022-12-15T01:41:12.271Z,4.40
2022-12-15T01:43:46.195Z,4.53
2022-12-15T01:46:23.867Z,4.50
2022-12-15T01:49:03.520Z,5.97
2022-12-15T01:51:40.124Z,4.37
2022-12-15T01:54:19.312Z,8.30
2022-12-15T01:56:55.551Z,5.17
2022-12-15T01:59:31.396Z,5.33
2022-12-15T02:02:04.637Z,5.13
2022-12-15T02:04:37.842Z,4.77
2022-12-15T02:07:14.844Z,4.70
2022-12-15T02:09:48.706Z,5.43
2022-12-15T02:12:42.526Z,5.47
2022-12-15T02:15:24.785Z,6.50
2022-12-15T02:18:16.887Z,4.70
2022-12-15T02:20:49.840Z,5.60
2022-12-15T02:23:41.700Z,5.70
2022-12-15T02:26:31.874Z,4.73
2022-12-15T02:29:33.499Z,5.00
2022-12-15T02:32:11.116Z,4.57
2022-12-15T02:34:44.002Z,4.63
2022-12-15T02:37:22.861Z,5.00
2022-12-15T02:39:55.817Z,5.30
2022-12-15T02:42:30.276Z,5.80
2022-12-15T02:45:07.149Z,5.37
2022-12-15T02:47:46.009Z,4.57
2022-12-15T02:50:34.362Z,5.50
2022-12-15T02:53:16.418Z,5.87
2022-12-15T02:55:58.657Z,5.70
2022-12-15T02:58:40.861Z,5.27
2022-12-15T03:01:29.274Z,5.93
2022-12-15T03:04:03.623Z,6.17
2022-12-15T03:06:36.560Z,5.37
2022-12-15T03:09:09.540Z,5.13
2022-12-15T03:11:42.521Z,5.13
2022-12-15T03:14:15.530Z,5.43
2022-12-15T03:16:48.533Z,5.53
2022-12-15T03:19:21.992Z,5.73
2022-12-15T03:21:54.937Z,5.77
2022-12-15T03:24:27.911Z,5.30
2022-12-15T03:27:00.843Z,4.80
2022-12-15T03:29:33.781Z,5.07
2022-12-15T03:32:07.129Z,4.53
2022-12-15T03:34:40.215Z,4.67
2022-12-15T03:37:13.181Z,4.50
2022-12-15T03:39:46.214Z,5.10
2022-12-15T03:42:39.126Z,5.80
2022-12-15T03:45:12.131Z,5.33
2022-12-15T03:47:45.807Z,5.50
2022-12-15T03:50:21.148Z,5.13
2022-12-15T03:52:58.889Z,5.50
2022-12-15T03:55:31.846Z,6.17
2022-12-15T03:58:04.799Z,5.30
2022-12-15T04:00:37.926Z,4.53
2022-12-15T04:03:11.868Z,4.90
2022-12-15T04:05:44.997Z,5.97
2022-12-15T04:08:18.021Z,5.30
2022-12-15T04:10:50.981Z,5.40
2022-12-15T04:13:23.911Z,4.83
2022-12-15T04:15:56.904Z,4.67
2022-12-15T04:18:29.877Z,4.53
2022-12-15T04:21:02.886Z,5.27
2022-12-15T04:23:35.812Z,4.00
2022-12-15T04:26:27.358Z,3.70
2022-12-15T04:29:18.853Z,5.30
2022-12-15T04:32:10.731Z,4.93
2022-12-15T04:35:02.271Z,3.33
2022-12-15T04:37:53.870Z,4.40
2022-12-15T04:40:45.329Z,3.50
2022-12-15T04:43:36.976Z,4.03
2022-12-15T04:46:28.396Z,4.57
2022-12-15T04:49:20.031Z,4.70
2022-12-15T04:52:11.683Z,7.43
2022-12-15T04:55:03.387Z,5.40
2022-12-15T04:57:55.039Z,5.00
2022-12-15T05:00:46.725Z,4.47
2022-12-15T05:03:38.273Z,4.03
2022-12-15T05:06:29.884Z,4.60
2022-12-15T05:09:21.542Z,4.23
2022-12-15T05:12:13.677Z,5.23
2022-12-15T05:15:05.204Z,8.55
2022-12-15T05:17:56.735Z,6.10
2022-12-15T05:20:50.041Z,4.20
2022-12-15T05:23:41.944Z,5.23
2022-12-15T05:26:33.407Z,4.50
2022-12-15T05:29:25.096Z,4.77
2022-12-15T05:31:58.440Z,5.30
2022-12-15T05:34:32.600Z,5.27
2022-12-15T05:37:07.178Z,3.83
2022-12-15T05:39:40.099Z,3.40
2022-12-15T05:42:13.051Z,4.30
2022-12-15T05:44:46.007Z,4.87
2022-12-15T05:47:19.118Z,4.63
2022-12-15T05:49:52.212Z,4.07
2022-12-15T05:52:25.406Z,4.67
2022-12-15T05:54:58.470Z,4.17
2022-12-15T05:57:31.662Z,3.50
2022-12-15T06:00:05.541Z,4.63
2022-12-15T06:02:44.780Z,3.87
2022-12-15T06:05:18.250Z,4.27
2022-12-15T06:07:51.277Z,3.80
2022-12-15T06:10:24.695Z,4.23
2022-12-15T06:12:57.790Z,3.93
2022-12-15T06:15:30.947Z,4.43
2022-12-15T06:18:04.071Z,4.27
2022-12-15T06:20:37.122Z,4.50
2022-12-15T06:23:10.157Z,4.07
2022-12-15T06:25:43.213Z,4.73
2022-12-15T06:28:16.732Z,4.87
2022-12-15T06:30:49.916Z,4.00
2022-12-15T06:33:23.555Z,4.13
2022-12-15T06:35:56.957Z,3.90
2022-12-15T06:38:30.431Z,4.23
2022-12-15T06:41:04.312Z,4.73
2022-12-15T06:43:37.240Z,4.33
2022-12-15T06:46:10.940Z,4.03
2022-12-15T06:48:45.636Z,3.97
2022-12-15T06:51:18.776Z,4.53
2022-12-15T06:53:55.435Z,3.97
2022-12-15T06:56:34.347Z,4.43
2022-12-15T06:59:08.399Z,4.37
2022-12-15T07:01:41.934Z,4.47
2022-12-15T07:04:15.217Z,4.33
2022-12-15T07:06:49.088Z,3.87
2022-12-15T07:09:22.020Z,4.00
2022-12-15T07:11:55.050Z,4.57
2022-12-15T07:14:28.010Z,3.37
2022-12-15T07:17:00.953Z,4.80
2022-12-15T07:19:33.900Z,4.00
2022-12-15T07:22:06.922Z,3.83
2022-12-15T07:24:39.861Z,4.17
2022-12-15T07:27:12.878Z,4.67
2022-12-15T07:29:45.824Z,4.00
2022-12-15T07:32:19.038Z,3.97
2022-12-15T07:34:51.961Z,4.70
2022-12-15T07:37:24.967Z,4.37
2022-12-15T07:39:58.055Z,4.67
2022-12-15T07:42:32.281Z,4.30
2022-12-15T07:45:05.655Z,4.10
2022-12-15T07:47:38.594Z,5.60
2022-12-15T07:50:11.543Z,3.70
2022-12-15T07:52:44.502Z,6.97
2022-12-15T07:55:27.761Z,4.67
2022-12-15T07:58:11.374Z,3.77
2022-12-15T08:00:48.810Z,4.23
2022-12-15T08:03:22.180Z,5.10
2022-12-15T08:06:00.284Z,5.17
2022-12-15T08:08:37.009Z,4.03
2022-12-15T08:11:11.579Z,4.67
2022-12-15T08:16:38.306Z,9.10
2022-12-15T08:19:15.403Z,6.40
2022-12-15T08:21:48.585Z,5.70
2022-12-15T08:24:21.546Z,5.67
2022-12-15T08:26:54.505Z,6.03
2022-12-15T08:32:20.474Z,5.20
2022-12-15T08:34:53.535Z,5.47
2022-12-15T08:37:26.917Z,4.47
2022-12-15T08:39:59.840Z,5.40
2022-12-15T08:42:36.849Z,6.33
2022-12-15T08:45:11.196Z,4.53
2022-12-15T08:47:44.181Z,5.03
2022-12-15T08:50:17.200Z,5.73
2022-12-15T08:53:13.864Z,5.50
2022-12-15T08:55:43.038Z,5.23
2022-12-15T08:58:16.119Z,5.43
2022-12-15T09:00:49.144Z,5.23
2022-12-15T09:03:22.098Z,4.43
2022-12-15T09:05:55.047Z,4.80
2022-12-15T09:08:30.730Z,5.27
2022-12-15T09:11:05.724Z,5.53
2022-12-15T09:13:39.299Z,6.07
2022-12-15T09:16:14.514Z,5.60
2022-12-15T09:18:49.597Z,4.67
2022-12-15T09:21:24.958Z,5.93
2022-12-15T09:24:00.651Z,5.50
2022-12-15T09:26:35.325Z,5.43
2022-12-15T09:29:08.271Z,5.43
2022-12-15T09:31:44.473Z,6.03
2022-12-15T09:34:17.487Z,5.57
2022-12-15T09:36:50.504Z,6.33
2022-12-15T09:39:23.581Z,5.87
2022-12-15T09:41:59.391Z,5.43
2022-12-15T09:44:33.320Z,6.43
2022-12-15T09:47:12.636Z,7.40
2022-12-15T09:49:58.462Z,4.00
2022-12-15T09:52:38.288Z,6.03
2022-12-15T09:55:20.475Z,6.10
2022-12-15T09:57:54.742Z,5.27
2022-12-15T10:00:35.503Z,3.43
2022-12-15T10:03:08.643Z,6.47
2022-12-15T10:08:56.625Z,6.00
2022-12-15T10:14:51.862Z,6.47
2022-12-15T10:17:26.353Z,6.97
2022-12-15T10:20:18.658Z,6.10
2022-12-15T10:22:51.588Z,7.10
2022-12-15T10:25:30.515Z,6.57
2022-12-15T10:28:33.776Z,7.03
2022-12-15T10:31:16.032Z,6.23
2022-12-15T10:33:51.960Z,6.03
2022-12-15T10:36:24.957Z,7.03
2022-12-15T10:38:57.868Z,6.80
2022-12-15T10:41:35.448Z,6.10
2022-12-15T10:44:28.613Z,7.67
2022-12-15T10:47:31.325Z,6.80
2022-12-15T10:50:24.279Z,4.90
2022-12-15T10:52:57.965Z,6.60
2022-12-15T10:55:37.222Z,10.65
2022-12-15T10:58:18.410Z,7.80
2022-12-15T11:01:06.290Z,6.40
2022-12-15T11:03:40.365Z,7.03
2022-12-15T11:06:17.163Z,6.87
2022-12-15T11:08:51.420Z,7.27
2022-12-15T11:11:45.846Z,6.70
2022-12-15T11:14:28.952Z,5.80
2022-12-15T11:17:01.936Z,7.40
2022-12-15T11:19:38.008Z,7.03
2022-12-15T11:22:16.067Z,8.17
2022-12-15T11:24:55.060Z,6.67
2022-12-15T11:27:33.778Z,6.67
2022-12-15T11:30:17.718Z,6.50
2022-12-15T11:32:54.229Z,6.97
2022-12-15T11:35:44.996Z,6.90
2022-12-15T11:38:37.801Z,6.87
2022-12-15T11:41:39.543Z,6.83
2022-12-15T11:44:12.601Z,6.03
2022-12-15T11:46:53.932Z,6.73
2022-12-15T11:49:40.737Z,7.83
2022-12-15T11:52:33.415Z,6.17
2022-12-15T11:55:17.034Z,7.40
2022-12-15T11:57:53.100Z,6.93
2022-12-15T12:00:26.105Z,7.10
2022-12-15T12:03:02.170Z,6.30
2022-12-15T12:05:53.036Z,6.33
2022-12-15T12:08:41.388Z,4.97
2022-12-15T12:11:20.745Z,5.63
2022-12-15T12:14:13.440Z,7.97
2022-12-15T12:17:05.140Z,5.17
2022-12-15T12:19:50.786Z,5.63
2022-12-15T12:22:37.682Z,6.93
2022-12-15T12:25:10.737Z,6.60
2022-12-15T12:27:50.399Z,6.87
2022-12-15T12:30:25.937Z,6.97
2022-12-15T12:33:12.382Z,6.67
2022-12-15T12:35:48.805Z,6.60
2022-12-15T12:38:35.226Z,8.00
2022-12-15T12:41:16.291Z,6.63
2022-12-15T12:43:52.455Z,6.50
2022-12-15T12:46:28.167Z,3.23
2022-12-15T12:49:07.229Z,6.10
2022-12-15T12:51:41.817Z,5.23
2022-12-15T12:54:33.486Z,6.70
2022-12-15T12:57:12.366Z,6.60
2022-12-15T12:59:57.062Z,7.40
2022-12-15T13:02:37.995Z,5.70
2022-12-15T13:05:29.234Z,6.37
2022-12-15T13:08:05.218Z,6.37
2022-12-15T13:10:45.616Z,7.17
2022-12-15T13:13:32.690Z,6.37
2022-12-15T13:16:11.371Z,5.90
2022-12-15T13:19:08.353Z,6.10
2022-12-15T13:21:48.839Z,5.60
2022-12-15T13:24:37.365Z,5.33
2022-12-15T13:27:10.038Z,6.80
2022-12-15T13:30:15.457Z,2.20
2022-12-15T13:32:53.165Z,5.53
2022-12-15T13:35:31.432Z,5.70
2022-12-15T13:38:07.229Z,4.80
2022-12-15T13:40:50.474Z,5.57
2022-12-15T13:43:26.480Z,5.87
2022-12-15T13:46:14.964Z,4.80
2022-12-15T13:48:53.742Z,4.40
2022-12-15T13:51:37.463Z,4.57
2022-12-15T13:54:24.871Z,4.93
2022-12-15T13:57:19.242Z,5.07
2022-12-15T13:59:54.265Z,5.00
2022-12-15T14:02:28.399Z,4.97
2022-12-15T14:05:22.412Z,5.17
2022-12-15T14:07:57.873Z,5.63
2022-12-15T14:10:39.724Z,6.00
2022-12-15T14:13:23.386Z,4.70
2022-12-15T14:16:05.133Z,5.17
2022-12-15T14:18:41.285Z,5.20
2022-12-15T14:21:22.679Z,5.40
2022-12-15T14:24:36.373Z,5.73
2022-12-15T14:26:50.914Z,5.43
2022-12-15T14:29:24.781Z,5.93
2022-12-15T14:31:58.436Z,6.00
2022-12-15T14:34:41.662Z,6.83
2022-12-15T14:37:20.153Z,5.47
2022-12-15T14:39:53.797Z,5.70
2022-12-15T14:42:29.191Z,4.80
2022-12-15T14:45:01.996Z,4.60
2022-12-15T14:47:35.720Z,4.63
2022-12-15T14:50:11.297Z,4.87
2022-12-15T14:52:44.810Z,5.20
2022-12-15T14:55:39.179Z,5.63
2022-12-15T14:58:33.563Z,7.70
2022-12-15T15:01:25.387Z,5.90
2022-12-15T15:03:04.235Z,6.93
2022-12-15T15:04:04.033Z,5.50
2022-12-15T15:06:40.034Z,5.97
2022-12-15T15:09:28.579Z,5.33
2022-12-15T15:12:06.384Z,4.80
2022-12-15T15:14:43.229Z,5.60
2022-12-15T15:17:37.347Z,4.93
2022-12-15T15:20:24.870Z,4.83
2022-12-15T15:23:17.929Z,5.00
2022-12-15T15:25:56.481Z,5.33
2022-12-15T15:28:37.640Z,9.23
2022-12-15T15:31:25.293Z,5.30
2022-12-15T15:33:58.420Z,5.20
2022-12-15T15:36:37.004Z,4.67
2022-12-15T15:39:15.621Z,6.63
2022-12-15T15:41:48.385Z,6.30
2022-12-15T15:44:21.078Z,4.53
2022-12-15T15:46:54.237Z,4.13
2022-12-15T15:49:27.299Z,3.53
2022-12-15T15:52:00.321Z,3.80
2022-12-15T15:54:35.916Z,4.33
2022-12-15T15:57:16.187Z,4.20
2022-12-15T15:59:48.897Z,4.10
2022-12-15T16:02:22.427Z,4.10
2022-12-15T16:04:56.308Z,3.83
2022-12-15T16:07:31.392Z,3.77
2022-12-15T16:10:04.566Z,3.63
2022-12-15T16:12:49.967Z,3.83
2022-12-15T16:15:28.478Z,3.47
2022-12-15T16:18:01.370Z,3.80
2022-12-15T16:20:34.930Z,2.77
2022-12-15T16:23:17.010Z,3.13
2022-12-15T16:25:58.297Z,3.80
2022-12-15T16:28:33.354Z,2.80
2022-12-15T16:31:11.572Z,2.97
2022-12-15T16:33:44.268Z,3.57
2022-12-15T16:36:17.163Z,3.35
2022-12-15T16:38:50.234Z,2.43
2022-12-15T16:41:23.295Z,2.80
2022-12-15T16:43:56.013Z,3.27
2022-12-15T16:46:28.741Z,3.10
2022-12-15T16:49:01.601Z,3.07
2022-12-15T16:51:40.253Z,2.90
2022-12-15T16:54:28.321Z,2.90
2022-12-15T16:57:01.067Z,3.00
2022-12-15T16:59:34.931Z,4.75
2022-12-15T17:02:24.875Z,4.27
2022-12-15T17:04:58.650Z,4.00
2022-12-15T17:07:32.091Z,2.73
2022-12-15T17:10:05.751Z,3.20
2022-12-15T17:12:38.604Z,2.37
2022-12-15T17:15:19.934Z,3.43
2022-12-15T17:17:54.903Z,2.37
2022-12-15T17:20:30.523Z,2.30
2022-12-15T17:23:07.569Z,2.30
2022-12-15T17:28:40.523Z,3.03
2022-12-15T17:31:19.447Z,2.47
2022-12-15T17:33:52.705Z,2.53
2022-12-15T17:36:27.980Z,2.97
2022-12-15T17:39:01.582Z,2.33
2022-12-15T17:41:58.748Z,2.33
2022-12-15T17:44:38.249Z,2.13
2022-12-15T17:47:11.670Z,2.50
2022-12-15T17:49:44.559Z,3.87
2022-12-15T17:52:29.190Z,3.03
2022-12-15T17:55:03.739Z,2.97
2022-12-15T17:57:36.960Z,3.20
2022-12-15T18:00:19.986Z,2.87
2022-12-15T18:02:54.562Z,2.37
2022-12-15T18:05:30.239Z,2.40
2022-12-15T18:08:12.606Z,1.90
2022-12-15T18:10:47.211Z,2.67
2022-12-15T18:13:22.858Z,2.13
2022-12-15T18:15:56.522Z,2.50
2022-12-15T18:18:29.246Z,2.80
2022-12-15T18:21:13.879Z,2.73
2022-12-15T18:23:47.511Z,2.53
2022-12-15T18:26:21.105Z,2.90
2022-12-15T18:28:53.854Z,3.17
2022-12-15T18:31:30.161Z,1.77
2022-12-15T18:34:05.029Z,2.50
2022-12-15T18:36:38.008Z,2.10
2022-12-15T18:39:23.375Z,3.07
2022-12-15T18:41:57.202Z,4.17
2022-12-15T18:44:31.732Z,3.80
2022-12-15T18:47:15.398Z,2.93
2022-12-15T18:49:48.556Z,2.23
2022-12-15T18:52:25.085Z,2.63
2022-12-15T18:55:00.963Z,3.03
2022-12-15T18:57:38.005Z,3.37
2022-12-15T19:00:13.566Z,3.07
2022-12-15T19:02:46.506Z,2.27
2022-12-15T19:05:29.462Z,2.17
2022-12-15T19:08:13.472Z,3.03
2022-12-15T19:11:09.985Z,2.13
2022-12-15T19:13:42.750Z,3.07
2022-12-15T19:16:20.376Z,3.00
2022-12-15T19:19:17.106Z,3.23
2022-12-15T19:22:28.468Z,3.10
2022-12-15T19:25:02.019Z,2.97
2022-12-15T19:27:34.741Z,2.77
2022-12-15T19:30:18.685Z,3.00
2022-12-15T19:32:51.449Z,3.17
2022-12-15T19:35:25.704Z,2.80
2022-12-15T19:38:01.653Z,3.00
2022-12-15T19:40:36.411Z,3.47
2022-12-15T19:43:12.987Z,2.87
2022-12-15T19:45:46.234Z,1.93
2022-12-15T19:48:23.315Z,3.27
2022-12-15T19:50:56.741Z,3.78
2022-12-15T19:53:30.945Z,3.07
2022-12-15T19:56:04.471Z,2.63
2022-12-15T19:58:37.325Z,2.33
2022-12-15T20:01:15.855Z,3.60
2022-12-15T20:03:50.978Z,2.13
2022-12-15T20:06:26.224Z,2.30
2022-12-15T20:08:59.752Z,2.50
2022-12-15T20:11:32.995Z,2.60
2022-12-15T20:14:15.172Z,3.00
2022-12-15T20:16:50.146Z,2.70
2022-12-15T20:19:23.041Z,2.60
2022-12-15T20:21:55.771Z,2.50
2022-12-15T20:24:29.862Z,3.20
2022-12-15T20:27:06.131Z,2.17
2022-12-15T20:29:43.750Z,2.10
2022-12-15T20:32:19.368Z,2.30
2022-12-15T20:34:52.047Z,3.33
2022-12-15T20:37:30.058Z,2.37
2022-12-15T20:40:03.258Z,2.87
2022-12-15T20:42:36.054Z,2.63
2022-12-15T20:45:09.797Z,2.90
2022-12-15T20:47:44.846Z,2.60
2022-12-15T20:50:28.074Z,2.80
2022-12-15T20:53:01.348Z,1.80
2022-12-15T20:55:34.297Z,2.17
2022-12-15T20:58:07.135Z,2.20
2022-12-15T21:00:40.257Z,1.97
2022-12-15T21:03:29.299Z,2.57
2022-12-15T21:06:02.285Z,2.37
2022-12-15T21:08:35.142Z,2.23
2022-12-15T21:11:18.225Z,1.87
2022-12-15T21:13:53.186Z,2.20
2022-12-15T21:16:27.993Z,2.40
2022-12-15T21:19:19.743Z,2.30
2022-12-15T21:21:55.542Z,2.17
2022-12-15T21:24:29.656Z,2.20
2022-12-15T21:27:03.999Z,2.20
2022-12-15T21:29:36.725Z,2.10
2022-12-15T21:32:09.676Z,1.80
2022-12-15T21:34:42.415Z,2.03
2022-12-15T21:37:26.783Z,1.63
2022-12-15T21:39:59.758Z,2.17
2022-12-15T21:42:35.607Z,2.37
2022-12-15T21:45:16.583Z,1.97
2022-12-15T21:48:08.949Z,1.80
2022-12-15T21:50:45.511Z,1.87
2022-12-15T21:53:18.425Z,1.97
2022-12-15T21:55:51.150Z,2.37
2022-12-15T21:58:24.814Z,2.00
2022-12-15T22:00:59.250Z,2.27
2022-12-15T22:03:33.692Z,2.20
2022-12-15T22:06:06.553Z,1.70
2022-12-15T22:08:39.336Z,1.60
2022-12-15T22:11:28.935Z,1.70
2022-12-15T22:14:04.362Z,2.00
2022-12-15T22:16:37.039Z,1.83
2022-12-15T22:19:12.587Z,1.50
2022-12-15T22:21:45.364Z,1.77
2022-12-15T22:24:18.043Z,1.80
2022-12-15T22:26:51.035Z,1.70
2022-12-15T22:29:24.372Z,1.80
2022-12-15T22:32:00.168Z,1.80
2022-12-15T22:34:32.944Z,1.60
2022-12-15T22:37:05.675Z,1.70
2022-12-15T22:39:38.376Z,1.30
2022-12-15T22:42:16.849Z,1.50
2022-12-15T22:44:49.705Z,2.58
2022-12-15T22:47:22.486Z,1.63
2022-12-15T22:49:55.206Z,1.53
2022-12-15T22:52:27.910Z,1.50
2022-12-15T22:55:00.680Z,1.30
2022-12-15T22:57:33.465Z,1.43
2022-12-15T23:00:09.303Z,1.37
2022-12-15T23:02:45.258Z,1.43
2022-12-15T23:05:19.229Z,1.10
2022-12-15T23:07:53.019Z,1.30
2022-12-15T23:10:46.409Z,1.53
2022-12-15T23:13:19.158Z,1.70
2022-12-15T23:16:10.469Z,1.70
2022-12-15T23:18:43.182Z,1.90
2022-12-15T23:21:16.173Z,1.83
2022-12-15T23:23:49.360Z,1.47
2022-12-15T23:26:23.776Z,1.40
2022-12-15T23:28:58.424Z,1.40
2022-12-15T23:31:31.381Z,1.67
2022-12-15T23:34:04.378Z,1.77
2022-12-15T23:36:37.306Z,1.10
2022-12-15T23:39:10.257Z,1.80
2022-12-15T23:41:43.133Z,1.20
2022-12-15T23:44:16.093Z,1.37
2022-12-15T23:46:49.086Z,1.57
2022-12-15T23:49:22.136Z,1.67
2022-12-15T23:51:55.170Z,1.60
2022-12-15T23:54:28.111Z,1.70
2022-12-15T23:57:02.031Z,1.60
2022-12-15T23:59:34.942Z,1.70
